sensor_id;sensor_type;location;lat;lon;timestamp;pressure;altitude;pressure_sealevel;temperature;humidity
75815;BME280;64451;45.574;14.224;2022-12-08T00:01:28;96437.03;;;3.30;91.46
75815;BME280;64451;45.574;14.224;2022-12-08T00:03:28;96432.59;;;2.87;94.00
75815;BME280;64451;45.574;14.224;2022-12-08T00:05:29;96428.69;;;2.68;94.74
75815;BME280;64451;45.574;14.224;2022-12-08T00:07:47;96426.84;;;2.95;93.62
75815;BME280;64451;45.574;14.224;2022-12-08T00:10:07;96432.88;;;3.13;92.31
75815;BME280;64451;45.574;14.224;2022-12-08T00:12:12;96426.75;;;3.12;92.21
75815;BME280;64451;45.574;14.224;2022-12-08T00:14:14;96427.56;;;3.13;92.15
75815;BME280;64451;45.574;14.224;2022-12-08T00:16:14;96428.16;;;3.20;92.13
75815;BME280;64451;45.574;14.224;2022-12-08T00:18:14;96429.41;;;3.12;92.78
75815;BME280;64451;45.574;14.224;2022-12-08T00:20:15;96430.88;;;3.25;92.41
75815;BME280;64451;45.574;14.224;2022-12-08T00:22:15;96420.25;;;3.25;91.91
75815;BME280;64451;45.574;14.224;2022-12-08T00:24:16;96425.50;;;3.20;92.56
75815;BME280;64451;45.574;14.224;2022-12-08T00:26:17;96423.03;;;2.86;93.45
75815;BME280;64451;45.574;14.224;2022-12-08T00:28:17;96420.66;;;3.12;93.36
75815;BME280;64451;45.574;14.224;2022-12-08T00:30:18;96428.25;;;3.03;92.91
75815;BME280;64451;45.574;14.224;2022-12-08T00:32:18;96428.06;;;2.83;93.49
75815;BME280;64451;45.574;14.224;2022-12-08T00:34:18;96432.06;;;2.85;93.14
75815;BME280;64451;45.574;14.224;2022-12-08T00:36:19;96418.41;;;2.54;93.82
75815;BME280;64451;45.574;14.224;2022-12-08T00:38:19;96418.34;;;2.93;93.22
75815;BME280;64451;45.574;14.224;2022-12-08T00:40:19;96423.47;;;3.00;92.48
75815;BME280;64451;45.574;14.224;2022-12-08T00:42:20;96430.63;;;2.77;93.77
75815;BME280;64451;45.574;14.224;2022-12-08T00:44:20;96427.97;;;2.77;94.32
75815;BME280;64451;45.574;14.224;2022-12-08T00:46:20;96429.75;;;2.94;93.23
75815;BME280;64451;45.574;14.224;2022-12-08T00:48:21;96429.47;;;2.90;93.14
75815;BME280;64451;45.574;14.224;2022-12-08T00:50:21;96440.91;;;2.91;93.70
75815;BME280;64451;45.574;14.224;2022-12-08T00:52:21;96436.09;;;2.66;94.63
75815;BME280;64451;45.574;14.224;2022-12-08T00:54:22;96439.63;;;2.49;95.85
75815;BME280;64451;45.574;14.224;2022-12-08T00:56:22;96448.28;;;2.89;94.90
75815;BME280;64451;45.574;14.224;2022-12-08T00:58:23;96442.78;;;2.95;93.82
75815;BME280;64451;45.574;14.224;2022-12-08T01:00:23;96448.91;;;2.96;93.78
75815;BME280;64451;45.574;14.224;2022-12-08T01:02:23;96451.72;;;2.84;94.20
75815;BME280;64451;45.574;14.224;2022-12-08T01:04:24;96458.00;;;3.00;94.02
75815;BME280;64451;45.574;14.224;2022-12-08T01:06:24;96454.09;;;3.07;93.46
75815;BME280;64451;45.574;14.224;2022-12-08T01:08:25;96458.13;;;3.37;91.85
75815;BME280;64451;45.574;14.224;2022-12-08T01:10:25;96466.97;;;3.43;91.70
75815;BME280;64451;45.574;14.224;2022-12-08T01:12:28;96464.09;;;3.49;90.68
75815;BME280;64451;45.574;14.224;2022-12-08T01:14:28;96460.94;;;3.52;90.59
75815;BME280;64451;45.574;14.224;2022-12-08T01:16:32;96462.63;;;3.36;90.47
75815;BME280;64451;45.574;14.224;2022-12-08T01:18:32;96456.91;;;3.50;90.45
75815;BME280;64451;45.574;14.224;2022-12-08T01:20:33;96455.00;;;3.18;92.09
75815;BME280;64451;45.574;14.224;2022-12-08T01:22:33;96449.63;;;3.13;93.19
75815;BME280;64451;45.574;14.224;2022-12-08T01:24:35;96442.59;;;3.02;92.71
75815;BME280;64451;45.574;14.224;2022-12-08T01:26:35;96442.91;;;3.05;92.82
75815;BME280;64451;45.574;14.224;2022-12-08T01:28:36;96438.72;;;3.09;92.58
75815;BME280;64451;45.574;14.224;2022-12-08T01:30:38;96428.34;;;3.13;92.45
75815;BME280;64451;45.574;14.224;2022-12-08T01:32:38;96422.25;;;3.13;92.44
75815;BME280;64451;45.574;14.224;2022-12-08T01:34:39;96415.88;;;3.14;92.38
75815;BME280;64451;45.574;14.224;2022-12-08T01:36:39;96416.31;;;3.05;92.08
75815;BME280;64451;45.574;14.224;2022-12-08T01:38:40;96418.75;;;3.07;92.46
75815;BME280;64451;45.574;14.224;2022-12-08T01:40:40;96410.91;;;2.95;92.79
75815;BME280;64451;45.574;14.224;2022-12-08T01:42:40;96414.09;;;2.97;93.58
75815;BME280;64451;45.574;14.224;2022-12-08T01:46:45;96418.59;;;2.92;94.22
75815;BME280;64451;45.574;14.224;2022-12-08T01:48:49;96418.34;;;2.93;93.92
75815;BME280;64451;45.574;14.224;2022-12-08T01:50:50;96404.09;;;3.04;92.98
75815;BME280;64451;45.574;14.224;2022-12-08T01:52:56;96396.97;;;3.10;91.13
75815;BME280;64451;45.574;14.224;2022-12-08T01:55:03;96395.19;;;3.21;91.76
75815;BME280;64451;45.574;14.224;2022-12-08T01:57:17;96393.81;;;3.40;89.25
75815;BME280;64451;45.574;14.224;2022-12-08T01:59:19;96390.56;;;3.38;89.41
75815;BME280;64451;45.574;14.224;2022-12-08T02:01:21;96392.22;;;3.44;89.17
75815;BME280;64451;45.574;14.224;2022-12-08T02:03:29;96381.91;;;3.21;90.76
75815;BME280;64451;45.574;14.224;2022-12-08T02:05:32;96378.72;;;3.19;91.02
75815;BME280;64451;45.574;14.224;2022-12-08T02:07:34;96379.81;;;3.23;90.85
75815;BME280;64451;45.574;14.224;2022-12-08T02:09:35;96377.72;;;3.30;90.55
75815;BME280;64451;45.574;14.224;2022-12-08T02:11:36;96359.00;;;3.15;89.99
75815;BME280;64451;45.574;14.224;2022-12-08T02:13:38;96361.13;;;2.86;90.95
75815;BME280;64451;45.574;14.224;2022-12-08T02:23:04;96370.91;;;2.36;93.37
75815;BME280;64451;45.574;14.224;2022-12-08T02:25:14;96360.22;;;2.53;93.92
75815;BME280;64451;45.574;14.224;2022-12-08T02:34:36;96350.22;;;2.87;93.49
75815;BME280;64451;45.574;14.224;2022-12-08T02:44:07;96359.25;;;3.45;90.09
75815;BME280;64451;45.574;14.224;2022-12-08T02:46:17;96353.38;;;3.43;89.68
75815;BME280;64451;45.574;14.224;2022-12-08T02:48:20;96342.34;;;3.24;90.61
75815;BME280;64451;45.574;14.224;2022-12-08T02:50:20;96343.69;;;3.27;90.78
75815;BME280;64451;45.574;14.224;2022-12-08T02:54:21;96350.44;;;3.40;90.90
75815;BME280;64451;45.574;14.224;2022-12-08T02:56:34;96351.06;;;3.52;89.33
75815;BME280;64451;45.574;14.224;2022-12-08T03:07:52;96354.84;;;2.97;94.09
75815;BME280;64451;45.574;14.224;2022-12-08T03:10:25;96353.75;;;2.93;94.69
75815;BME280;64451;45.574;14.224;2022-12-08T03:12:43;96357.91;;;2.84;94.48
75815;BME280;64451;45.574;14.224;2022-12-08T03:14:51;96363.97;;;2.79;94.65
75815;BME280;64451;45.574;14.224;2022-12-08T03:16:54;96354.72;;;2.81;94.97
75815;BME280;64451;45.574;14.224;2022-12-08T03:19:17;96344.44;;;2.90;94.97
75815;BME280;64451;45.574;14.224;2022-12-08T03:21:20;96347.41;;;3.26;93.47
75815;BME280;64451;45.574;14.224;2022-12-08T03:23:21;96350.53;;;3.55;91.71
75815;BME280;64451;45.574;14.224;2022-12-08T03:25:25;96340.81;;;3.71;90.18
75815;BME280;64451;45.574;14.224;2022-12-08T03:27:28;96332.72;;;3.55;91.00
75815;BME280;64451;45.574;14.224;2022-12-08T03:29:31;96324.97;;;3.49;91.88
75815;BME280;64451;45.574;14.224;2022-12-08T03:31:33;96329.31;;;3.28;92.11
75815;BME280;64451;45.574;14.224;2022-12-08T03:33:40;96319.34;;;3.40;92.16
75815;BME280;64451;45.574;14.224;2022-12-08T03:35:44;96328.06;;;3.35;92.75
75815;BME280;64451;45.574;14.224;2022-12-08T03:37:45;96328.34;;;3.39;93.13
75815;BME280;64451;45.574;14.224;2022-12-08T03:39:45;96323.13;;;3.54;92.15
75815;BME280;64451;45.574;14.224;2022-12-08T03:41:46;96320.66;;;3.43;91.80
75815;BME280;64451;45.574;14.224;2022-12-08T03:43:54;96319.06;;;3.42;92.42
75815;BME280;64451;45.574;14.224;2022-12-08T03:45:56;96316.66;;;3.40;92.71
75815;BME280;64451;45.574;14.224;2022-12-08T03:47:56;96316.19;;;3.48;92.77
75815;BME280;64451;45.574;14.224;2022-12-08T03:49:56;96307.84;;;3.34;93.07
75815;BME280;64451;45.574;14.224;2022-12-08T03:51:57;96305.78;;;3.42;93.02
75815;BME280;64451;45.574;14.224;2022-12-08T03:53:58;96309.97;;;3.37;93.22
75815;BME280;64451;45.574;14.224;2022-12-08T03:55:58;96314.28;;;3.06;93.96
75815;BME280;64451;45.574;14.224;2022-12-08T03:57:58;96317.28;;;2.88;94.67
75815;BME280;64451;45.574;14.224;2022-12-08T03:59:59;96319.41;;;2.86;94.82
75815;BME280;64451;45.574;14.224;2022-12-08T04:01:59;96322.38;;;2.90;94.65
75815;BME280;64451;45.574;14.224;2022-12-08T04:03:59;96323.66;;;2.87;95.43
75815;BME280;64451;45.574;14.224;2022-12-08T04:06:00;96326.28;;;2.82;95.89
75815;BME280;64451;45.574;14.224;2022-12-08T04:08:00;96333.81;;;2.95;95.02
75815;BME280;64451;45.574;14.224;2022-12-08T04:10:00;96323.00;;;3.02;94.91
75815;BME280;64451;45.574;14.224;2022-12-08T04:12:01;96327.78;;;3.05;94.54
75815;BME280;64451;45.574;14.224;2022-12-08T04:14:01;96330.78;;;3.08;94.40
75815;BME280;64451;45.574;14.224;2022-12-08T04:16:02;96321.81;;;3.20;94.28
75815;BME280;64451;45.574;14.224;2022-12-08T04:18:03;96318.22;;;3.36;93.24
75815;BME280;64451;45.574;14.224;2022-12-08T04:20:03;96321.09;;;3.29;93.14
75815;BME280;64451;45.574;14.224;2022-12-08T04:22:04;96305.34;;;3.60;92.35
75815;BME280;64451;45.574;14.224;2022-12-08T04:24:05;96298.22;;;3.65;91.76
75815;BME280;64451;45.574;14.224;2022-12-08T04:26:05;96307.91;;;3.45;92.64
75815;BME280;64451;45.574;14.224;2022-12-08T04:28:06;96305.94;;;3.30;93.02
75815;BME280;64451;45.574;14.224;2022-12-08T04:30:07;96309.69;;;3.34;93.20
75815;BME280;64451;45.574;14.224;2022-12-08T04:32:07;96316.34;;;3.31;93.31
75815;BME280;64451;45.574;14.224;2022-12-08T04:34:08;96302.38;;;3.51;92.61
75815;BME280;64451;45.574;14.224;2022-12-08T04:36:08;96283.22;;;3.49;92.08
75815;BME280;64451;45.574;14.224;2022-12-08T04:38:09;96293.81;;;3.44;92.67
75815;BME280;64451;45.574;14.224;2022-12-08T04:40:10;96291.63;;;3.36;93.34
75815;BME280;64451;45.574;14.224;2022-12-08T04:42:11;96283.00;;;3.19;93.95
75815;BME280;64451;45.574;14.224;2022-12-08T04:44:11;96293.81;;;3.07;94.42
75815;BME280;64451;45.574;14.224;2022-12-08T04:46:11;96299.28;;;2.95;94.73
75815;BME280;64451;45.574;14.224;2022-12-08T04:48:12;96302.25;;;2.99;94.76
75815;BME280;64451;45.574;14.224;2022-12-08T04:50:13;96303.78;;;2.90;95.41
75815;BME280;64451;45.574;14.224;2022-12-08T04:52:13;96304.59;;;2.95;95.04
75815;BME280;64451;45.574;14.224;2022-12-08T04:54:13;96300.84;;;2.91;94.81
75815;BME280;64451;45.574;14.224;2022-12-08T04:56:16;96291.47;;;2.84;94.73
75815;BME280;64451;45.574;14.224;2022-12-08T04:58:17;96290.75;;;2.93;94.33
75815;BME280;64451;45.574;14.224;2022-12-08T05:00:18;96293.94;;;2.90;94.86
75815;BME280;64451;45.574;14.224;2022-12-08T05:02:18;96285.50;;;2.98;94.86
75815;BME280;64451;45.574;14.224;2022-12-08T05:04:19;96289.25;;;3.02;94.53
75815;BME280;64451;45.574;14.224;2022-12-08T05:06:19;96287.81;;;2.90;94.95
75815;BME280;64451;45.574;14.224;2022-12-08T05:08:19;96285.41;;;2.88;95.40
75815;BME280;64451;45.574;14.224;2022-12-08T05:10:20;96285.56;;;2.76;96.03
75815;BME280;64451;45.574;14.224;2022-12-08T05:12:20;96278.75;;;2.86;95.69
75815;BME280;64451;45.574;14.224;2022-12-08T05:14:21;96279.03;;;2.89;95.11
75815;BME280;64451;45.574;14.224;2022-12-08T05:16:21;96276.50;;;3.04;94.67
75815;BME280;64451;45.574;14.224;2022-12-08T05:18:21;96277.75;;;2.97;95.03
75815;BME280;64451;45.574;14.224;2022-12-08T05:20:22;96273.25;;;2.97;94.92
75815;BME280;64451;45.574;14.224;2022-12-08T05:22:22;96269.81;;;3.34;94.16
75815;BME280;64451;45.574;14.224;2022-12-08T05:24:22;96275.56;;;3.21;93.72
75815;BME280;64451;45.574;14.224;2022-12-08T05:26:23;96275.06;;;2.92;95.10
75815;BME280;64451;45.574;14.224;2022-12-08T05:28:24;96273.22;;;2.92;95.13
75815;BME280;64451;45.574;14.224;2022-12-08T05:30:24;96277.47;;;2.93;95.39
75815;BME280;64451;45.574;14.224;2022-12-08T05:32:25;96271.38;;;2.93;95.32
75815;BME280;64451;45.574;14.224;2022-12-08T05:34:25;96269.38;;;3.10;94.98
75815;BME280;64451;45.574;14.224;2022-12-08T05:36:25;96281.28;;;3.40;94.06
75815;BME280;64451;45.574;14.224;2022-12-08T05:38:26;96288.72;;;3.05;94.82
75815;BME280;64451;45.574;14.224;2022-12-08T05:40:26;96279.72;;;3.06;94.44
75815;BME280;64451;45.574;14.224;2022-12-08T05:42:26;96279.75;;;3.12;94.45
75815;BME280;64451;45.574;14.224;2022-12-08T05:44:27;96276.53;;;3.09;94.31
75815;BME280;64451;45.574;14.224;2022-12-08T05:46:27;96274.50;;;3.22;94.21
75815;BME280;64451;45.574;14.224;2022-12-08T05:48:27;96270.28;;;3.26;93.03
75815;BME280;64451;45.574;14.224;2022-12-08T05:50:28;96276.88;;;3.18;93.94
75815;BME280;64451;45.574;14.224;2022-12-08T05:52:28;96269.59;;;3.41;93.44
75815;BME280;64451;45.574;14.224;2022-12-08T05:54:28;96263.06;;;3.63;92.36
75815;BME280;64451;45.574;14.224;2022-12-08T05:56:29;96260.44;;;3.69;91.27
75815;BME280;64451;45.574;14.224;2022-12-08T05:58:29;96251.91;;;3.66;90.80
75815;BME280;64451;45.574;14.224;2022-12-08T06:00:30;96266.84;;;3.25;92.09
75815;BME280;64451;45.574;14.224;2022-12-08T06:02:33;96266.03;;;3.25;92.45
75815;BME280;64451;45.574;14.224;2022-12-08T06:04:34;96267.41;;;3.32;91.78
75815;BME280;64451;45.574;14.224;2022-12-08T06:06:35;96255.03;;;3.48;91.20
75815;BME280;64451;45.574;14.224;2022-12-08T06:08:35;96244.88;;;3.45;90.89
75815;BME280;64451;45.574;14.224;2022-12-08T06:10:43;96248.00;;;3.37;91.26
75815;BME280;64451;45.574;14.224;2022-12-08T06:12:44;96240.66;;;3.12;91.61
75815;BME280;64451;45.574;14.224;2022-12-08T06:14:44;96258.34;;;2.96;92.42
75815;BME280;64451;45.574;14.224;2022-12-08T06:16:45;96260.31;;;2.74;93.91
75815;BME280;64451;45.574;14.224;2022-12-08T06:18:45;96260.09;;;2.53;94.64
75815;BME280;64451;45.574;14.224;2022-12-08T06:20:46;96269.69;;;2.81;94.05
75815;BME280;64451;45.574;14.224;2022-12-08T06:22:46;96270.16;;;3.10;93.00
75815;BME280;64451;45.574;14.224;2022-12-08T06:24:47;96275.56;;;3.21;91.96
75815;BME280;64451;45.574;14.224;2022-12-08T06:26:47;96271.75;;;2.74;93.51
75815;BME280;64451;45.574;14.224;2022-12-08T06:28:48;96266.88;;;2.66;94.30
75815;BME280;64451;45.574;14.224;2022-12-08T06:30:49;96269.28;;;2.68;93.85
75815;BME280;64451;45.574;14.224;2022-12-08T06:32:49;96270.41;;;2.77;92.95
75815;BME280;64451;45.574;14.224;2022-12-08T06:34:49;96271.09;;;2.94;93.10
75815;BME280;64451;45.574;14.224;2022-12-08T06:36:50;96261.06;;;3.01;92.55
75815;BME280;64451;45.574;14.224;2022-12-08T06:38:51;96267.31;;;3.22;92.45
75815;BME280;64451;45.574;14.224;2022-12-08T06:40:55;96263.84;;;3.17;91.97
75815;BME280;64451;45.574;14.224;2022-12-08T06:42:55;96271.56;;;3.18;92.93
75815;BME280;64451;45.574;14.224;2022-12-08T06:44:56;96270.59;;;2.97;93.34
75815;BME280;64451;45.574;14.224;2022-12-08T06:46:56;96271.69;;;3.01;93.65
75815;BME280;64451;45.574;14.224;2022-12-08T06:48:57;96266.44;;;3.12;92.99
75815;BME280;64451;45.574;14.224;2022-12-08T06:51:15;96276.34;;;2.84;93.43
75815;BME280;64451;45.574;14.224;2022-12-08T06:53:16;96269.81;;;2.70;93.82
75815;BME280;64451;45.574;14.224;2022-12-08T06:55:16;96268.81;;;2.76;93.60
75815;BME280;64451;45.574;14.224;2022-12-08T06:57:17;96270.97;;;2.79;92.78
75815;BME280;64451;45.574;14.224;2022-12-08T06:59:20;96275.19;;;2.75;93.08
75815;BME280;64451;45.574;14.224;2022-12-08T07:01:20;96286.47;;;2.60;93.81
75815;BME280;64451;45.574;14.224;2022-12-08T07:03:21;96298.41;;;2.58;94.28
75815;BME280;64451;45.574;14.224;2022-12-08T07:05:21;96290.28;;;2.69;94.49
75815;BME280;64451;45.574;14.224;2022-12-08T07:07:22;96294.84;;;2.74;94.46
75815;BME280;64451;45.574;14.224;2022-12-08T07:09:22;96294.59;;;2.75;93.85
75815;BME280;64451;45.574;14.224;2022-12-08T07:11:22;96301.50;;;2.76;93.82
75815;BME280;64451;45.574;14.224;2022-12-08T07:13:22;96313.03;;;2.60;95.00
75815;BME280;64451;45.574;14.224;2022-12-08T07:15:23;96317.22;;;2.56;94.68
75815;BME280;64451;45.574;14.224;2022-12-08T07:17:23;96298.06;;;2.76;93.62
75815;BME280;64451;45.574;14.224;2022-12-08T07:19:24;96290.50;;;2.95;92.62
75815;BME280;64451;45.574;14.224;2022-12-08T07:21:24;96291.56;;;2.94;92.89
75815;BME280;64451;45.574;14.224;2022-12-08T07:23:25;96296.22;;;3.14;92.40
75815;BME280;64451;45.574;14.224;2022-12-08T07:25:25;96283.53;;;3.21;91.25
75815;BME280;64451;45.574;14.224;2022-12-08T07:27:25;96303.19;;;3.20;91.72
75815;BME280;64451;45.574;14.224;2022-12-08T07:29:26;96297.88;;;3.20;91.92
75815;BME280;64451;45.574;14.224;2022-12-08T07:31:26;96296.09;;;3.30;91.09
75815;BME280;64451;45.574;14.224;2022-12-08T07:33:27;96287.78;;;3.22;91.94
75815;BME280;64451;45.574;14.224;2022-12-08T07:35:28;96293.34;;;3.15;91.73
75815;BME280;64451;45.574;14.224;2022-12-08T07:37:28;96288.44;;;3.02;91.61
75815;BME280;64451;45.574;14.224;2022-12-08T07:39:28;96300.75;;;2.81;93.22
75815;BME280;64451;45.574;14.224;2022-12-08T07:41:29;96300.16;;;2.74;93.37
75815;BME280;64451;45.574;14.224;2022-12-08T07:43:30;96304.78;;;2.89;92.71
75815;BME280;64451;45.574;14.224;2022-12-08T07:45:30;96301.75;;;2.75;93.22
75815;BME280;64451;45.574;14.224;2022-12-08T07:47:30;96302.47;;;2.65;94.06
75815;BME280;64451;45.574;14.224;2022-12-08T07:49:31;96309.41;;;2.71;93.77
75815;BME280;64451;45.574;14.224;2022-12-08T07:51:31;96310.97;;;2.67;94.29
75815;BME280;64451;45.574;14.224;2022-12-08T07:53:32;96311.53;;;2.69;93.98
75815;BME280;64451;45.574;14.224;2022-12-08T07:55:32;96312.31;;;2.70;94.54
75815;BME280;64451;45.574;14.224;2022-12-08T07:57:33;96311.94;;;2.83;93.78
75815;BME280;64451;45.574;14.224;2022-12-08T07:59:33;96313.91;;;2.66;94.46
75815;BME280;64451;45.574;14.224;2022-12-08T08:01:34;96316.44;;;2.56;95.07
75815;BME280;64451;45.574;14.224;2022-12-08T08:03:35;96321.81;;;2.61;95.04
75815;BME280;64451;45.574;14.224;2022-12-08T08:05:35;96324.25;;;2.67;95.32
75815;BME280;64451;45.574;14.224;2022-12-08T08:07:36;96333.47;;;2.87;94.83
75815;BME280;64451;45.574;14.224;2022-12-08T08:09:36;96334.25;;;2.82;94.21
75815;BME280;64451;45.574;14.224;2022-12-08T08:11:36;96329.41;;;2.79;94.04
75815;BME280;64451;45.574;14.224;2022-12-08T08:13:37;96340.06;;;2.79;94.20
75815;BME280;64451;45.574;14.224;2022-12-08T08:15:38;96340.06;;;2.79;94.79
75815;BME280;64451;45.574;14.224;2022-12-08T08:17:38;96333.56;;;3.24;93.42
75815;BME280;64451;45.574;14.224;2022-12-08T08:19:38;96320.88;;;3.36;92.13
75815;BME280;64451;45.574;14.224;2022-12-08T08:21:39;96321.66;;;3.31;92.41
75815;BME280;64451;45.574;14.224;2022-12-08T08:23:39;96319.75;;;3.27;93.10
75815;BME280;64451;45.574;14.224;2022-12-08T08:25:39;96323.84;;;3.07;93.20
75815;BME280;64451;45.574;14.224;2022-12-08T08:27:40;96328.41;;;3.12;93.22
75815;BME280;64451;45.574;14.224;2022-12-08T08:29:40;96324.66;;;3.08;93.75
75815;BME280;64451;45.574;14.224;2022-12-08T08:31:41;96321.19;;;3.07;93.77
75815;BME280;64451;45.574;14.224;2022-12-08T08:33:42;96321.94;;;3.35;92.82
75815;BME280;64451;45.574;14.224;2022-12-08T08:35:42;96321.69;;;3.36;92.33
75815;BME280;64451;45.574;14.224;2022-12-08T08:37:43;96322.75;;;3.03;93.33
75815;BME280;64451;45.574;14.224;2022-12-08T08:39:43;96323.75;;;2.97;94.04
75815;BME280;64451;45.574;14.224;2022-12-08T08:41:44;96328.59;;;3.05;93.71
75815;BME280;64451;45.574;14.224;2022-12-08T08:43:44;96328.91;;;3.09;94.37
75815;BME280;64451;45.574;14.224;2022-12-08T08:45:45;96329.78;;;3.15;93.71
75815;BME280;64451;45.574;14.224;2022-12-08T08:47:45;96322.75;;;3.03;93.27
75815;BME280;64451;45.574;14.224;2022-12-08T08:49:46;96322.94;;;3.24;93.34
75815;BME280;64451;45.574;14.224;2022-12-08T08:51:46;96324.72;;;3.50;92.04
75815;BME280;64451;45.574;14.224;2022-12-08T08:53:46;96322.13;;;3.23;92.53
75815;BME280;64451;45.574;14.224;2022-12-08T08:55:48;96331.81;;;3.07;94.02
75815;BME280;64451;45.574;14.224;2022-12-08T08:57:48;96325.94;;;3.05;94.32
75815;BME280;64451;45.574;14.224;2022-12-08T08:59:49;96338.75;;;3.08;93.59
75815;BME280;64451;45.574;14.224;2022-12-08T09:01:49;96339.19;;;3.00;93.93
75815;BME280;64451;45.574;14.224;2022-12-08T09:03:49;96332.06;;;2.79;94.53
75815;BME280;64451;45.574;14.224;2022-12-08T09:05:50;96332.13;;;2.84;94.67
75815;BME280;64451;45.574;14.224;2022-12-08T09:07:50;96324.50;;;2.93;94.95
75815;BME280;64451;45.574;14.224;2022-12-08T09:09:51;96323.34;;;3.10;94.28
75815;BME280;64451;45.574;14.224;2022-12-08T09:11:51;96328.47;;;2.90;94.41
75815;BME280;64451;45.574;14.224;2022-12-08T09:13:52;96335.78;;;2.78;94.98
75815;BME280;64451;45.574;14.224;2022-12-08T09:15:53;96343.91;;;2.66;96.13
75815;BME280;64451;45.574;14.224;2022-12-08T09:17:53;96341.19;;;2.61;95.61
75815;BME280;64451;45.574;14.224;2022-12-08T09:19:54;96347.31;;;2.62;95.73
75815;BME280;64451;45.574;14.224;2022-12-08T09:21:54;96346.56;;;2.66;95.70
75815;BME280;64451;45.574;14.224;2022-12-08T09:23:56;96350.06;;;2.72;95.85
75815;BME280;64451;45.574;14.224;2022-12-08T09:25:57;96339.22;;;2.73;95.66
75815;BME280;64451;45.574;14.224;2022-12-08T09:27:57;96337.72;;;2.83;95.47
75815;BME280;64451;45.574;14.224;2022-12-08T09:29:58;96329.19;;;3.13;94.62
75815;BME280;64451;45.574;14.224;2022-12-08T09:31:58;96324.53;;;3.25;93.87
75815;BME280;64451;45.574;14.224;2022-12-08T09:33:58;96323.72;;;3.24;93.80
75815;BME280;64451;45.574;14.224;2022-12-08T09:36:03;96312.78;;;3.21;93.65
75815;BME280;64451;45.574;14.224;2022-12-08T09:38:03;96317.81;;;3.17;94.16
75815;BME280;64451;45.574;14.224;2022-12-08T09:40:04;96307.78;;;3.24;93.98
75815;BME280;64451;45.574;14.224;2022-12-08T09:42:06;96304.84;;;3.26;93.85
75815;BME280;64451;45.574;14.224;2022-12-08T09:46:31;96307.19;;;3.22;94.64
75815;BME280;64451;45.574;14.224;2022-12-08T09:48:36;96301.81;;;3.12;94.48
75815;BME280;64451;45.574;14.224;2022-12-08T09:50:47;96284.13;;;3.28;94.87
75815;BME280;64451;45.574;14.224;2022-12-08T09:53:13;96291.16;;;3.44;94.45
75815;BME280;64451;45.574;14.224;2022-12-08T09:55:23;96289.06;;;3.51;95.64
75815;BME280;64451;45.574;14.224;2022-12-08T09:57:24;96288.53;;;3.49;93.89
75815;BME280;64451;45.574;14.224;2022-12-08T09:59:34;96284.81;;;3.55;93.04
75815;BME280;64451;45.574;14.224;2022-12-08T10:01:36;96292.41;;;3.79;91.79
75815;BME280;64451;45.574;14.224;2022-12-08T10:03:41;96282.66;;;3.47;92.71
75815;BME280;64451;45.574;14.224;2022-12-08T10:05:46;96288.81;;;3.53;91.62
75815;BME280;64451;45.574;14.224;2022-12-08T10:08:06;96279.56;;;3.60;93.34
75815;BME280;64451;45.574;14.224;2022-12-08T10:12:53;96281.69;;;3.63;94.80
75815;BME280;64451;45.574;14.224;2022-12-08T10:15:01;96289.97;;;3.67;94.23
75815;BME280;64451;45.574;14.224;2022-12-08T10:17:24;96284.34;;;3.63;94.38
75815;BME280;64451;45.574;14.224;2022-12-08T10:19:26;96273.88;;;3.89;93.51
75815;BME280;64451;45.574;14.224;2022-12-08T10:21:31;96283.25;;;4.07;91.87
75815;BME280;64451;45.574;14.224;2022-12-08T10:23:35;96287.78;;;4.06;90.85
75815;BME280;64451;45.574;14.224;2022-12-08T10:26:07;96283.31;;;4.22;90.84
75815;BME280;64451;45.574;14.224;2022-12-08T10:28:07;96279.91;;;4.42;90.91
75815;BME280;64451;45.574;14.224;2022-12-08T10:30:13;96284.22;;;4.58;89.96
75815;BME280;64451;45.574;14.224;2022-12-08T10:32:23;96276.28;;;5.09;88.50
75815;BME280;64451;45.574;14.224;2022-12-08T10:34:27;96276.53;;;5.07;88.12
75815;BME280;64451;45.574;14.224;2022-12-08T10:36:53;96274.09;;;4.65;86.48
75815;BME280;64451;45.574;14.224;2022-12-08T10:38:55;96265.28;;;4.49;87.24
75815;BME280;64451;45.574;14.224;2022-12-08T10:41:15;96268.53;;;4.72;86.32
75815;BME280;64451;45.574;14.224;2022-12-08T10:43:21;96267.47;;;4.73;88.25
75815;BME280;64451;45.574;14.224;2022-12-08T10:45:27;96258.63;;;4.62;88.67
75815;BME280;64451;45.574;14.224;2022-12-08T10:47:29;96263.94;;;4.52;88.00
75815;BME280;64451;45.574;14.224;2022-12-08T10:49:34;96255.44;;;4.55;87.88
75815;BME280;64451;45.574;14.224;2022-12-08T10:51:41;96260.69;;;4.25;89.75
75815;BME280;64451;45.574;14.224;2022-12-08T10:53:45;96252.75;;;4.50;88.68
75815;BME280;64451;45.574;14.224;2022-12-08T10:55:49;96253.34;;;4.72;86.72
75815;BME280;64451;45.574;14.224;2022-12-08T10:57:50;96252.53;;;4.72;87.32
75815;BME280;64451;45.574;14.224;2022-12-08T10:59:53;96237.59;;;4.66;87.50
75815;BME280;64451;45.574;14.224;2022-12-08T11:01:55;96241.03;;;4.71;88.86
75815;BME280;64451;45.574;14.224;2022-12-08T11:03:58;96238.66;;;4.65;89.00
75815;BME280;64451;45.574;14.224;2022-12-08T11:06:00;96233.84;;;4.51;88.16
75815;BME280;64451;45.574;14.224;2022-12-08T11:08:08;96240.25;;;4.76;88.31
75815;BME280;64451;45.574;14.224;2022-12-08T11:10:16;96233.59;;;4.78;88.67
75815;BME280;64451;45.574;14.224;2022-12-08T11:12:21;96230.38;;;4.71;88.18
75815;BME280;64451;45.574;14.224;2022-12-08T11:14:25;96226.66;;;4.57;89.09
75815;BME280;64451;45.574;14.224;2022-12-08T11:16:26;96226.28;;;4.13;91.16
75815;BME280;64451;45.574;14.224;2022-12-08T11:18:39;96233.53;;;4.33;90.35
75815;BME280;64451;45.574;14.224;2022-12-08T11:20:40;96229.28;;;4.37;90.32
75815;BME280;64451;45.574;14.224;2022-12-08T11:22:45;96226.66;;;4.77;88.09
75815;BME280;64451;45.574;14.224;2022-12-08T11:27:07;96236.53;;;4.87;89.36
75815;BME280;64451;45.574;14.224;2022-12-08T11:29:10;96235.75;;;4.97;89.44
75815;BME280;64451;45.574;14.224;2022-12-08T11:31:33;96218.41;;;5.04;87.28